createdAt,value
2023-04-11T00:01:23.748Z,100129.44
2023-04-11T00:03:50.764Z,100138.34
2023-04-11T00:06:17.640Z,100146.72
2023-04-11T00:08:44.532Z,100151.84
2023-04-11T00:11:11.266Z,100142.34
2023-04-11T00:13:38.422Z,100139.72
2023-04-11T00:16:05.568Z,100139.19
2023-04-11T00:18:35.905Z,100152.59
2023-04-11T00:21:06.462Z,100150.13
2023-04-11T00:23:33.067Z,100126.00
2023-04-11T00:25:59.690Z,100127.50
2023-04-11T00:28:26.286Z,100138.28
2023-04-11T00:30:52.965Z,100140.09
2023-04-11T00:33:19.916Z,100132.56
2023-04-11T00:35:46.547Z,100141.78
2023-04-11T00:38:13.211Z,100137.69
2023-04-11T00:40:40.171Z,100137.47
2023-04-11T00:43:06.799Z,100139.72
2023-04-11T00:45:33.629Z,100127.00
2023-04-11T00:48:01.125Z,100121.66
2023-04-11T00:50:28.694Z,100118.66
2023-04-11T00:52:56.664Z,100098.94
2023-04-11T00:55:23.706Z,100096.78
2023-04-11T00:57:53.927Z,100106.75
2023-04-11T01:00:20.622Z,100103.25
2023-04-11T01:02:47.744Z,100106.13
2023-04-11T01:05:15.417Z,100116.38
2023-04-11T01:07:45.652Z,100120.69
2023-04-11T01:10:13.802Z,100123.13
2023-04-11T01:12:41.955Z,100133.38
2023-04-11T01:15:09.353Z,100143.03
2023-04-11T01:17:36.228Z,100140.59
2023-04-11T01:20:03.180Z,100143.28
2023-04-11T01:22:30.643Z,100141.06
2023-04-11T01:24:57.435Z,100151.72
2023-04-11T01:27:24.314Z,100159.31
2023-04-11T01:29:51.033Z,100164.25
2023-04-11T01:32:17.744Z,100174.47
2023-04-11T01:34:47.205Z,100164.28
2023-04-11T01:37:14.021Z,100164.13
2023-04-11T01:39:40.887Z,100162.63
2023-04-11T01:42:09.061Z,100162.16
2023-04-11T01:44:36.825Z,100168.16
2023-04-11T01:47:03.874Z,100164.59
2023-04-11T01:49:30.845Z,100164.66
2023-04-11T01:51:57.609Z,100170.59
2023-04-11T01:54:24.389Z,100170.06
2023-04-11T01:56:52.226Z,100162.84
2023-04-11T01:59:19.530Z,100172.88
2023-04-11T02:01:46.482Z,100161.81
2023-04-11T02:04:13.338Z,100161.09
2023-04-11T02:06:41.502Z,100163.63
2023-04-11T02:09:08.689Z,100165.44
2023-04-11T02:11:36.000Z,100156.19
2023-04-11T02:14:03.628Z,100155.13
2023-04-11T02:16:55.461Z,100155.63
2023-04-11T02:19:23.426Z,100162.00
2023-04-11T02:21:52.117Z,100153.06
2023-04-11T02:24:19.201Z,100151.66
2023-04-11T02:26:46.071Z,100152.94
2023-04-11T02:29:12.784Z,100160.63
2023-04-11T02:31:39.528Z,100168.72
2023-04-11T02:34:06.427Z,100163.28
2023-04-11T02:36:34.845Z,100162.00
2023-04-11T02:39:01.692Z,100171.66
2023-04-11T02:41:28.353Z,100170.94
2023-04-11T02:43:55.266Z,100168.50
2023-04-11T02:46:22.377Z,100173.16
2023-04-11T02:48:49.294Z,100175.63
2023-04-11T02:51:15.993Z,100169.94
2023-04-11T02:53:42.677Z,100171.09
2023-04-11T02:56:10.880Z,100168.28
2023-04-11T02:58:41.742Z,100172.59
2023-04-11T03:01:12.001Z,100169.91
2023-04-11T03:03:39.213Z,100177.50
2023-04-11T03:06:07.282Z,100188.63
2023-04-11T03:08:37.246Z,100193.22
2023-04-11T03:11:05.030Z,100187.59
2023-04-11T03:13:32.026Z,100182.47
2023-04-11T03:15:59.534Z,100191.06
2023-04-11T03:18:28.971Z,100197.56
2023-04-11T03:20:56.815Z,100201.00
2023-04-11T03:23:23.617Z,100213.28
2023-04-11T03:25:50.877Z,100217.94
2023-04-11T03:28:19.046Z,100220.00
2023-04-11T03:30:46.380Z,100221.31
2023-04-11T03:33:18.241Z,100201.94
2023-04-11T03:35:45.046Z,100206.00
2023-04-11T03:38:11.716Z,100196.94
2023-04-11T03:40:38.440Z,100192.81
2023-04-11T03:43:16.742Z,100186.78
2023-04-11T03:45:43.695Z,100184.41
2023-04-11T03:48:32.210Z,100187.59
2023-04-11T03:51:03.249Z,100194.66
2023-04-11T03:53:38.453Z,100186.47
2023-04-11T03:56:19.252Z,100197.50
2023-04-11T03:58:45.959Z,100228.97
2023-04-11T04:01:14.002Z,100222.03
2023-04-11T04:03:41.267Z,100219.06
2023-04-11T04:06:11.792Z,100220.97
2023-04-11T04:08:39.581Z,100235.25
2023-04-11T04:11:06.880Z,100224.84
2023-04-11T04:13:36.147Z,100208.53
2023-04-11T04:16:11.578Z,100203.59
2023-04-11T04:18:41.220Z,100200.63
2023-04-11T04:21:08.683Z,100175.69
2023-04-11T04:23:39.097Z,100152.38
2023-04-11T04:26:24.903Z,100165.09
2023-04-11T04:29:06.508Z,100168.59
2023-04-11T04:31:50.644Z,100184.44
2023-04-11T04:34:21.943Z,100206.91
2023-04-11T04:36:49.968Z,100216.56
2023-04-11T04:39:25.407Z,100231.28
2023-04-11T04:41:58.385Z,100239.81
2023-04-11T04:44:30.582Z,100233.97
2023-04-11T04:47:02.282Z,100234.81
2023-04-11T04:49:29.263Z,100225.19
2023-04-11T04:51:55.881Z,100213.22
2023-04-11T04:54:23.711Z,100217.47
2023-04-11T04:56:50.560Z,100214.03
2023-04-11T04:59:18.683Z,100216.88
2023-04-11T05:01:51.646Z,100218.25
2023-04-11T05:04:23.769Z,100226.91
2023-04-11T05:06:54.320Z,100229.09
2023-04-11T05:09:21.190Z,100229.00
2023-04-11T05:11:50.576Z,100251.06
2023-04-11T05:14:20.619Z,100245.88
2023-04-11T05:16:47.416Z,100240.50
2023-04-11T05:19:14.116Z,100254.66
2023-04-11T05:21:45.357Z,100253.28
2023-04-11T05:24:12.145Z,100244.75
2023-04-11T05:26:39.826Z,100254.97
2023-04-11T05:29:07.116Z,100257.38
2023-04-11T05:31:34.012Z,100264.41
2023-04-11T05:34:02.394Z,100264.44
2023-04-11T05:36:29.426Z,100264.13
2023-04-11T05:38:56.246Z,100260.38
2023-04-11T05:41:22.967Z,100268.34
2023-04-11T05:43:49.694Z,100280.06
2023-04-11T05:46:17.431Z,100273.72
2023-04-11T05:48:44.182Z,100280.72
2023-04-11T05:51:10.925Z,100275.75
2023-04-11T05:53:37.522Z,100277.88
2023-04-11T05:56:04.495Z,100283.50
2023-04-11T05:58:31.209Z,100274.28
2023-04-11T06:00:59.706Z,100291.38
2023-04-11T06:03:27.101Z,100308.06
2023-04-11T06:05:54.465Z,100304.63
2023-04-11T06:08:21.504Z,100314.25
2023-04-11T06:10:48.278Z,100316.44
2023-04-11T06:13:15.009Z,100319.06
2023-04-11T06:15:41.669Z,100318.00
2023-04-11T06:18:08.333Z,100321.38
2023-04-11T06:20:35.159Z,100325.44
2023-04-11T06:23:01.841Z,100322.19
2023-04-11T06:25:28.496Z,100319.31
2023-04-11T06:27:55.109Z,100317.94
2023-04-11T06:30:21.766Z,100316.53
2023-04-11T06:32:48.554Z,100335.94
2023-04-11T06:35:15.180Z,100340.00
2023-04-11T06:37:42.404Z,100337.09
2023-04-11T06:40:09.541Z,100344.91
2023-04-11T06:42:36.223Z,100339.38
2023-04-11T06:45:04.769Z,100341.97
2023-04-11T06:47:31.519Z,100359.88
2023-04-11T06:49:58.161Z,100352.38
2023-04-11T06:52:27.571Z,100359.41
2023-04-11T06:54:54.835Z,100365.84
2023-04-11T06:57:21.894Z,100369.00
2023-04-11T06:59:48.481Z,100373.16
2023-04-11T07:02:15.617Z,100372.28
2023-04-11T07:04:42.435Z,100378.16
2023-04-11T07:07:09.161Z,100400.16
2023-04-11T07:09:36.332Z,100397.38
2023-04-11T07:12:03.013Z,100392.91
2023-04-11T07:14:29.672Z,100397.47
2023-04-11T07:16:56.268Z,100395.50
2023-04-11T07:19:22.931Z,100388.56
2023-04-11T07:21:49.767Z,100403.59
2023-04-11T07:24:18.583Z,100396.75
2023-04-11T07:26:46.686Z,100392.88
2023-04-11T07:29:14.855Z,100400.50
2023-04-11T07:31:41.857Z,100402.25
2023-04-11T07:34:08.632Z,100400.53
2023-04-11T07:36:35.435Z,100397.00
2023-04-11T07:39:04.122Z,100407.38
2023-04-11T07:41:30.831Z,100407.44
2023-04-11T07:43:57.687Z,100413.16
2023-04-11T07:46:24.640Z,100421.28
2023-04-11T07:48:51.285Z,100417.91
2023-04-11T07:51:17.955Z,100415.91
2023-04-11T07:53:44.848Z,100418.13
2023-04-11T07:56:12.117Z,100418.16
2023-04-11T07:58:38.777Z,100411.72
2023-04-11T08:01:06.978Z,100423.88
2023-04-11T08:03:33.770Z,100419.16
2023-04-11T08:06:04.023Z,100419.63
2023-04-11T08:08:30.718Z,100422.78
2023-04-11T08:10:57.420Z,100419.31
2023-04-11T08:13:24.020Z,100410.13
2023-04-11T08:15:50.751Z,100425.88
2023-04-11T08:18:21.365Z,100418.66
2023-04-11T08:20:48.843Z,100417.13
2023-04-11T08:23:15.517Z,100407.41
2023-04-11T08:25:42.121Z,100406.16
2023-04-11T08:28:10.820Z,100426.81
2023-04-11T08:30:37.594Z,100411.75
2023-04-11T08:33:04.330Z,100418.59
2023-04-11T08:35:31.076Z,100418.38
2023-04-11T08:37:58.126Z,100436.47
2023-04-11T08:40:26.865Z,100438.41
2023-04-11T08:43:00.839Z,100440.72
2023-04-11T08:45:28.721Z,100439.66
2023-04-11T08:47:55.428Z,100441.53
2023-04-11T08:50:22.322Z,100437.00
2023-04-11T08:52:50.387Z,100436.66
2023-04-11T08:55:16.982Z,100432.19
2023-04-11T08:57:43.891Z,100429.38
2023-04-11T09:00:14.640Z,100424.00
2023-04-11T09:03:01.230Z,100429.38
2023-04-11T09:05:41.136Z,100420.66
2023-04-11T09:08:10.745Z,100431.81
2023-04-11T09:10:39.025Z,100424.59
2023-04-11T09:13:31.998Z,100426.00
2023-04-11T09:16:10.445Z,100426.59
2023-04-11T09:18:46.413Z,100422.78
2023-04-11T09:21:15.325Z,100416.97
2023-04-11T09:23:42.118Z,100420.28
2023-04-11T09:26:11.123Z,100418.91
2023-04-11T09:28:53.893Z,100418.69
2023-04-11T09:31:21.802Z,100418.69
2023-04-11T09:33:56.833Z,100419.31
2023-04-11T09:36:27.216Z,100428.97
2023-04-11T09:38:54.154Z,100436.13
2023-04-11T09:41:35.917Z,100440.81
2023-04-11T09:44:02.855Z,100438.63
2023-04-11T09:46:29.657Z,100449.91
2023-04-11T09:48:57.158Z,100452.97
2023-04-11T09:51:35.865Z,100440.25
2023-04-11T09:54:05.843Z,100439.63
2023-04-11T09:56:34.930Z,100442.16
2023-04-11T09:59:03.069Z,100442.38
2023-04-11T10:01:29.833Z,100445.69
2023-04-11T10:03:57.272Z,100446.22
2023-04-11T10:06:38.515Z,100448.75
2023-04-11T10:09:10.829Z,100444.13
2023-04-11T10:11:41.311Z,100443.28
2023-04-11T10:14:08.016Z,100447.94
2023-04-11T10:16:34.953Z,100452.63
2023-04-11T10:19:01.967Z,100451.81
2023-04-11T10:21:34.630Z,100457.56
2023-04-11T10:24:18.449Z,100454.66
2023-04-11T10:26:52.385Z,100451.97
2023-04-11T10:29:28.096Z,100453.31
2023-04-11T10:32:24.713Z,100448.19
2023-04-11T10:34:54.152Z,100447.09
2023-04-11T10:37:34.944Z,100446.56
2023-04-11T10:40:12.275Z,100459.13
2023-04-11T10:42:42.300Z,100454.72
2023-04-11T10:45:23.460Z,100472.06
2023-04-11T10:48:01.358Z,100468.66
2023-04-11T10:50:28.127Z,100459.94
2023-04-11T10:52:59.562Z,100461.78
2023-04-11T10:55:28.855Z,100459.13
2023-04-11T10:58:09.558Z,100456.75
2023-04-11T11:01:21.285Z,100453.56
2023-04-11T11:03:58.413Z,100438.69
2023-04-11T11:06:26.488Z,100448.66
2023-04-11T11:08:54.156Z,100451.94
2023-04-11T11:11:20.993Z,100442.38
2023-04-11T11:13:51.153Z,100438.63
2023-04-11T11:16:22.833Z,100426.75
2023-04-11T11:18:54.084Z,100428.50
2023-04-11T11:21:27.902Z,100427.38
2023-04-11T11:24:00.629Z,100427.38
2023-04-11T11:26:43.930Z,100420.59
2023-04-11T11:29:11.280Z,100434.22
2023-04-11T11:31:45.483Z,100440.53
2023-04-11T11:34:23.421Z,100441.34
2023-04-11T11:36:51.137Z,100448.66
2023-04-11T11:39:19.517Z,100472.88
2023-04-11T11:41:47.330Z,100469.09
2023-04-11T11:44:24.450Z,100470.44
2023-04-11T11:47:09.099Z,100468.31
2023-04-11T11:49:49.539Z,100466.03
2023-04-11T11:52:41.989Z,100466.28
2023-04-11T11:55:17.800Z,100460.53
2023-04-11T11:57:45.815Z,100463.94
2023-04-11T12:00:13.913Z,100451.88
2023-04-11T12:02:43.058Z,100456.66
2023-04-11T12:05:13.442Z,100450.22
2023-04-11T12:07:40.507Z,100445.31
2023-04-11T12:10:09.133Z,100458.75
2023-04-11T12:12:38.165Z,100461.25
2023-04-11T12:15:19.007Z,100447.75
2023-04-11T12:17:51.361Z,100440.75
2023-04-11T12:20:26.360Z,100441.13
2023-04-11T12:22:54.828Z,100445.25
2023-04-11T12:25:22.527Z,100436.00
2023-04-11T12:27:49.213Z,100431.19
2023-04-11T12:30:16.065Z,100428.66
2023-04-11T12:32:43.894Z,100415.06
2023-04-11T12:35:11.790Z,100418.84
2023-04-11T12:37:38.991Z,100420.53
2023-04-11T12:40:12.022Z,100421.34
2023-04-11T12:45:11.728Z,100417.91
2023-04-11T12:47:39.263Z,100417.91
2023-04-11T12:50:07.062Z,100410.94
2023-04-11T12:52:34.541Z,100416.47
2023-04-11T12:55:01.439Z,100410.53
2023-04-11T12:57:31.283Z,100418.63
2023-04-11T12:59:58.017Z,100415.53
2023-04-11T13:02:24.881Z,100412.41
2023-04-11T13:04:55.345Z,100407.53
2023-04-11T13:07:22.134Z,100408.91
2023-04-11T13:09:49.816Z,100407.28
2023-04-11T13:12:16.539Z,100412.69
2023-04-11T13:14:43.299Z,100410.78
2023-04-11T13:17:09.999Z,100408.38
2023-04-11T13:19:36.653Z,100412.16
2023-04-11T13:22:03.288Z,100401.88
2023-04-11T13:24:31.925Z,100407.03
2023-04-11T13:26:59.082Z,100391.88
2023-04-11T13:29:25.831Z,100404.06
2023-04-11T13:31:52.879Z,100400.28
2023-04-11T13:34:19.700Z,100395.91
2023-04-11T13:36:46.365Z,100380.22
2023-04-11T13:39:13.561Z,100391.31
2023-04-11T13:41:40.213Z,100387.25
2023-04-11T13:44:06.784Z,100398.34
2023-04-11T13:46:33.442Z,100395.59
2023-04-11T13:49:00.504Z,100396.78
2023-04-11T13:51:27.462Z,100390.09
2023-04-11T13:53:54.065Z,100401.09
2023-04-11T13:56:20.695Z,100399.72
2023-04-11T13:58:49.331Z,100417.84
2023-04-11T14:01:16.078Z,100397.56
2023-04-11T14:03:43.172Z,100406.78
2023-04-11T14:06:10.214Z,100410.53
2023-04-11T14:08:37.170Z,100404.06
2023-04-11T14:11:04.036Z,100408.38
2023-04-11T14:13:31.860Z,100403.78
2023-04-11T14:16:08.065Z,100401.88
2023-04-11T14:18:36.077Z,100407.97
2023-04-11T14:21:04.682Z,100408.53
2023-04-11T14:23:31.551Z,100414.47
2023-04-11T14:25:58.273Z,100411.69
2023-04-11T14:28:26.562Z,100411.94
2023-04-11T14:30:53.947Z,100409.47
2023-04-11T14:33:21.082Z,100395.47
2023-04-11T14:35:47.915Z,100397.94
2023-04-11T14:38:15.715Z,100387.81
2023-04-11T14:40:42.879Z,100392.63
2023-04-11T14:43:09.539Z,100392.91
2023-04-11T14:45:36.446Z,100404.69
2023-04-11T14:48:03.341Z,100407.34
2023-04-11T14:50:30.204Z,100391.75
2023-04-11T14:52:57.126Z,100396.34
2023-04-11T14:55:24.164Z,100399.91
2023-04-11T14:57:55.449Z,100400.03
2023-04-11T15:00:24.717Z,100398.75
2023-04-11T15:02:57.229Z,100395.59
2023-04-11T15:05:24.500Z,100383.44
2023-04-11T15:07:52.703Z,100379.22
2023-04-11T15:10:21.866Z,100384.81
2023-04-11T15:12:49.072Z,100391.25
2023-04-11T15:15:16.108Z,100399.56
2023-04-11T15:17:49.062Z,100379.84
2023-04-11T15:20:16.559Z,100384.22
2023-04-11T15:22:45.419Z,100374.66
2023-04-11T15:25:14.584Z,100372.88
2023-04-11T15:27:42.333Z,100369.25
2023-04-11T15:30:10.366Z,100370.84
2023-04-11T15:32:42.936Z,100373.09
2023-04-11T15:35:10.256Z,100362.28
2023-04-11T15:37:37.082Z,100368.84
2023-04-11T15:40:07.139Z,100357.75
2023-04-11T15:42:35.345Z,100361.81
2023-04-11T15:45:02.702Z,100363.16
2023-04-11T15:47:30.498Z,100366.16
2023-04-11T15:49:58.979Z,100359.38
2023-04-11T15:52:26.301Z,100358.00
2023-04-11T15:54:52.940Z,100358.53
2023-04-11T15:57:19.656Z,100356.66
2023-04-11T15:59:46.476Z,100348.53
2023-04-11T16:02:15.080Z,100356.41
2023-04-11T16:04:44.167Z,100354.53
2023-04-11T16:07:12.740Z,100358.06
2023-04-11T16:09:39.343Z,100348.00
2023-04-11T16:12:06.104Z,100353.13
2023-04-11T16:14:32.884Z,100348.56
2023-04-11T16:16:59.716Z,100349.13
2023-04-11T16:19:26.329Z,100354.81
2023-04-11T16:21:53.578Z,100354.81
2023-04-11T16:24:20.925Z,100356.16
2023-04-11T16:26:47.622Z,100355.88
2023-04-11T16:29:15.297Z,100352.91
2023-04-11T16:31:42.032Z,100355.34
2023-04-11T16:34:08.674Z,100357.78
2023-04-11T16:36:35.468Z,100353.72
2023-04-11T16:39:04.179Z,100343.19
2023-04-11T16:41:31.451Z,100351.31
2023-04-11T16:43:58.365Z,100344.50
2023-04-11T16:46:25.585Z,100345.31
2023-04-11T16:48:52.269Z,100348.31
2023-04-11T16:51:18.938Z,100349.66
2023-04-11T16:53:47.329Z,100337.72
2023-04-11T16:56:14.174Z,100332.06
2023-04-11T16:58:41.479Z,100333.16
2023-04-11T17:01:08.106Z,100324.22
2023-04-11T17:03:35.012Z,100326.41
2023-04-11T17:06:02.111Z,100318.81
2023-04-11T17:08:28.765Z,100324.50
2023-04-11T17:11:04.031Z,100321.78
2023-04-11T17:13:31.263Z,100330.94
2023-04-11T17:15:57.833Z,100314.69
2023-04-11T17:18:24.549Z,100320.06
2023-04-11T17:20:51.334Z,100325.47
2023-04-11T17:23:19.441Z,100323.88
2023-04-11T17:25:52.453Z,100323.06
2023-04-11T17:28:19.418Z,100327.09
2023-04-11T17:30:48.564Z,100328.13
2023-04-11T17:33:16.298Z,100333.28
2023-04-11T17:35:44.710Z,100326.53
2023-04-11T17:38:12.537Z,100328.69
2023-04-11T17:40:39.732Z,100319.22
2023-04-11T17:43:07.267Z,100321.66
2023-04-11T17:45:34.459Z,100329.75
2023-04-11T17:48:02.483Z,100322.16
2023-04-11T17:50:30.465Z,100320.03
2023-04-11T17:52:57.421Z,100324.03
2023-04-11T17:55:24.365Z,100329.44
2023-04-11T17:57:51.533Z,100319.19
2023-04-11T18:00:23.311Z,100328.91
2023-04-11T18:02:52.444Z,100331.59
2023-04-11T18:05:24.446Z,100329.09
2023-04-11T18:07:54.836Z,100326.28
2023-04-11T18:10:21.966Z,100327.41
2023-04-11T18:12:53.625Z,100326.69
2023-04-11T18:15:22.070Z,100332.09
2023-04-11T18:17:48.877Z,100336.88
2023-04-11T18:20:15.807Z,100325.25
2023-04-11T18:22:51.669Z,100325.19
2023-04-11T18:25:18.618Z,100329.25
2023-04-11T18:27:45.580Z,100325.06
2023-04-11T18:30:14.510Z,100327.22
2023-04-11T18:32:49.390Z,100324.03
2023-04-11T18:35:17.558Z,100326.72
2023-04-11T18:37:47.585Z,100324.56
2023-04-11T18:40:14.645Z,100327.22
2023-04-11T18:42:43.336Z,100325.91
2023-04-11T18:45:13.782Z,100323.94
2023-04-11T18:47:45.636Z,100316.38
2023-04-11T18:50:14.465Z,100314.38
2023-04-11T18:52:42.907Z,100316.22
2023-04-11T18:55:13.454Z,100332.50
2023-04-11T18:57:41.855Z,100324.00
2023-04-11T19:00:18.922Z,100324.34
2023-04-11T19:02:47.582Z,100330.63
2023-04-11T19:05:19.103Z,100326.22
2023-04-11T19:07:56.022Z,100319.94
2023-04-11T19:10:22.685Z,100327.56
2023-04-11T19:12:49.628Z,100323.28
2023-04-11T19:15:17.031Z,100315.09
2023-04-11T19:17:47.188Z,100315.06
2023-04-11T19:20:16.809Z,100314.78
2023-04-11T19:22:44.317Z,100313.38
2023-04-11T19:25:12.659Z,100311.75
2023-04-11T19:27:41.968Z,100317.75
2023-04-11T19:30:13.349Z,100307.94
2023-04-11T19:32:45.576Z,100309.06
2023-04-11T19:35:14.149Z,100301.50
2023-04-11T19:37:43.451Z,100312.28
2023-04-11T19:40:13.820Z,100305.25
2023-04-11T19:42:41.900Z,100308.22
2023-04-11T19:45:10.535Z,100307.88
2023-04-11T19:47:39.154Z,100299.50
2023-04-11T19:50:07.781Z,100298.22
2023-04-11T19:52:35.508Z,100298.22
2023-04-11T19:55:09.496Z,100282.22
2023-04-11T19:57:38.741Z,100279.28
2023-04-11T20:00:13.614Z,100277.97
2023-04-11T20:02:46.133Z,100273.09
2023-04-11T20:05:16.471Z,100270.72
2023-04-11T20:07:44.147Z,100275.59
2023-04-11T20:10:16.007Z,100271.72
2023-04-11T20:12:46.093Z,100263.19
2023-04-11T20:15:16.122Z,100258.91
2023-04-11T20:17:45.926Z,100259.69
2023-04-11T20:20:16.262Z,100260.16
2023-04-11T20:22:45.153Z,100253.94
2023-04-11T20:25:12.969Z,100252.31
2023-04-11T20:27:40.807Z,100251.25
2023-04-11T20:30:10.092Z,100244.69
2023-04-11T20:32:41.194Z,100247.44
2023-04-11T20:35:15.362Z,100235.72
2023-04-11T20:37:43.746Z,100229.41
2023-04-11T20:40:11.251Z,100226.44
2023-04-11T20:42:40.051Z,100229.13
2023-04-11T20:45:10.068Z,100216.75
2023-04-11T20:47:41.660Z,100225.91
2023-04-11T20:50:13.815Z,100212.72
2023-04-11T20:52:46.709Z,100213.69
2023-04-11T20:55:14.424Z,100212.84
2023-04-11T20:57:41.728Z,100206.13
2023-04-11T21:00:14.925Z,100200.63
2023-04-11T21:02:46.845Z,100192.91
2023-04-11T21:05:16.462Z,100191.28
2023-04-11T21:07:44.284Z,100191.81
2023-04-11T21:10:12.242Z,100189.66
2023-04-11T21:12:41.979Z,100186.16
2023-04-11T21:15:09.667Z,100179.88
2023-04-11T21:17:37.315Z,100182.28
2023-04-11T21:20:17.754Z,100170.44
2023-04-11T21:22:49.581Z,100169.28
2023-04-11T21:25:16.651Z,100166.31
2023-04-11T21:27:43.521Z,100165.50
2023-04-11T21:30:12.164Z,100162.00
2023-04-11T21:32:39.685Z,100159.09
2023-04-11T21:35:08.948Z,100147.59
2023-04-11T21:37:36.101Z,100146.75
2023-04-11T21:40:04.182Z,100146.47
2023-04-11T21:42:31.358Z,100138.25
2023-04-11T21:44:58.277Z,100129.31
2023-04-11T21:47:25.106Z,100133.44
2023-04-11T21:49:51.805Z,100135.22
2023-04-11T21:52:18.544Z,100127.09
2023-04-11T21:54:46.485Z,100119.78
2023-04-11T21:57:13.347Z,100123.66
2023-04-11T21:59:40.004Z,100122.59
2023-04-11T22:02:07.111Z,100115.38
2023-04-11T22:04:47.560Z,100113.69
2023-04-11T22:07:26.520Z,100108.81
2023-04-11T22:10:09.014Z,100103.31
2023-04-11T22:12:36.555Z,100111.22
2023-04-11T22:15:05.133Z,100110.13
2023-04-11T22:17:32.444Z,100111.72
2023-04-11T22:19:59.259Z,100097.66
2023-04-11T22:22:32.365Z,100096.59
2023-04-11T22:24:59.837Z,100093.06
2023-04-11T22:27:27.232Z,100082.97
2023-04-11T22:29:56.172Z,100071.22
2023-04-11T22:32:23.767Z,100077.41
2023-04-11T22:34:50.609Z,100070.63
2023-04-11T22:37:17.841Z,100077.19
2023-04-11T22:39:44.497Z,100069.81
2023-04-11T22:42:11.866Z,100068.53
2023-04-11T22:44:38.657Z,100066.59
2023-04-11T22:47:11.387Z,100062.53
2023-04-11T22:49:41.009Z,100058.34
2023-04-11T22:52:15.007Z,100059.03
2023-04-11T22:54:43.202Z,100048.25
2023-04-11T22:57:10.375Z,100041.56
2023-04-11T22:59:37.086Z,100042.59
2023-04-11T23:02:03.990Z,100038.00
2023-04-11T23:04:32.067Z,100033.16
2023-04-11T23:06:59.332Z,100025.91
2023-04-11T23:09:27.020Z,100023.72
2023-04-11T23:11:53.665Z,100014.28
2023-04-11T23:14:22.158Z,100016.72
2023-04-11T23:16:48.917Z,100017.84
2023-04-11T23:19:15.735Z,100014.88
2023-04-11T23:21:42.916Z,100010.28
2023-04-11T23:24:10.003Z,100008.94
2023-04-11T23:26:37.046Z,100015.56
2023-04-11T23:29:04.103Z,100008.63
2023-04-11T23:31:31.714Z,100010.69
2023-04-11T23:33:58.640Z,100008.53
2023-04-11T23:36:27.559Z,100008.00
2023-04-11T23:38:54.494Z,100016.50
2023-04-11T23:41:21.167Z,99997.16
2023-04-11T23:43:47.858Z,100006.00
2023-04-11T23:46:15.107Z,100012.78
2023-04-11T23:48:42.287Z,100003.44
2023-04-11T23:51:08.928Z,99999.63
2023-04-11T23:53:35.556Z,100002.97
2023-04-11T23:56:02.231Z,100003.34
2023-04-11T23:58:28.857Z,99992.41
